createdAt,value
2023-04-22T00:00:04.836Z,97408.28
2023-04-22T00:02:37.731Z,97402.53
2023-04-22T00:05:07.401Z,97409.09
2023-04-22T00:07:35.440Z,97402.09
2023-04-22T00:10:03.063Z,97404.72
2023-04-22T00:12:30.626Z,97403.59
2023-04-22T00:14:58.236Z,97403.63
2023-04-22T00:17:25.732Z,97402.91
2023-04-22T00:19:53.399Z,97397.50
2023-04-22T00:22:20.891Z,97401.84
2023-04-22T00:24:48.364Z,97404.94
2023-04-22T00:27:15.853Z,97400.34
2023-04-22T00:29:43.203Z,97406.16
2023-04-22T00:32:10.720Z,97405.00
2023-04-22T00:34:38.314Z,97411.97
2023-04-22T00:37:06.567Z,97413.00
2023-04-22T00:39:34.092Z,97411.09
2023-04-22T00:42:02.376Z,97412.31
2023-04-22T00:44:30.458Z,97413.53
2023-04-22T00:46:59.205Z,97405.06
2023-04-22T00:49:28.124Z,97410.56
2023-04-22T00:51:55.685Z,97406.28
2023-04-22T00:54:23.548Z,97414.03
2023-04-22T00:56:51.138Z,97421.75
2023-04-22T00:59:18.823Z,97410.22
2023-04-22T01:01:47.264Z,97414.53
2023-04-22T01:04:15.729Z,97409.84
2023-04-22T01:06:44.880Z,97417.22
2023-04-22T01:09:12.988Z,97417.22
2023-04-22T01:11:41.306Z,97421.53
2023-04-22T01:14:08.759Z,97407.34
2023-04-22T01:16:39.331Z,97415.47
2023-04-22T01:19:08.681Z,97415.13
2023-04-22T01:21:36.455Z,97415.16
2023-04-22T01:24:04.201Z,97416.34
2023-04-22T01:26:32.335Z,97427.97
2023-04-22T01:29:02.564Z,97422.25
2023-04-22T01:31:30.523Z,97417.97
2023-04-22T01:33:59.767Z,97422.69
2023-04-22T01:36:28.023Z,97416.13
2023-04-22T01:38:56.103Z,97420.78
2023-04-22T01:41:27.261Z,97414.25
2023-04-22T01:43:56.754Z,97426.63
2023-04-22T01:46:24.285Z,97427.81
2023-04-22T01:48:52.122Z,97418.56
2023-04-22T01:51:22.528Z,97416.66
2023-04-22T01:53:50.288Z,97417.09
2023-04-22T01:56:18.172Z,97414.44
2023-04-22T01:58:45.851Z,97418.69
2023-04-22T02:01:14.761Z,97417.56
2023-04-22T02:03:42.402Z,97416.03
2023-04-22T02:06:11.741Z,97424.94
2023-04-22T02:08:39.269Z,97424.22
2023-04-22T02:11:06.790Z,97428.13
2023-04-22T02:13:38.263Z,97429.00
2023-04-22T02:16:06.374Z,97440.94
2023-04-22T02:18:34.460Z,97432.84
2023-04-22T02:21:02.152Z,97442.09
2023-04-22T02:23:29.756Z,97442.50
2023-04-22T02:25:57.402Z,97438.66
2023-04-22T02:28:24.960Z,97439.06
2023-04-22T02:30:52.410Z,97444.09
2023-04-22T02:33:21.634Z,97444.94
2023-04-22T02:35:49.169Z,97436.44
2023-04-22T02:38:20.090Z,97446.47
2023-04-22T02:40:47.673Z,97450.38
2023-04-22T02:43:15.287Z,97449.97
2023-04-22T02:45:42.864Z,97449.97
2023-04-22T02:48:11.105Z,97442.19
2023-04-22T02:50:38.573Z,97444.47
2023-04-22T02:53:06.573Z,97454.13
2023-04-22T02:55:34.173Z,97451.06
2023-04-22T02:58:01.638Z,97447.25
2023-04-22T03:00:30.073Z,97455.78
2023-04-22T03:02:57.701Z,97443.81
2023-04-22T03:05:34.184Z,97450.44
2023-04-22T03:08:03.216Z,97458.91
2023-04-22T03:10:32.634Z,97463.22
2023-04-22T03:13:00.208Z,97456.66
2023-04-22T03:15:27.945Z,97454.72
2023-04-22T03:17:55.932Z,97462.41
2023-04-22T03:20:24.364Z,97454.69
2023-04-22T03:22:52.058Z,97450.78
2023-04-22T03:25:20.373Z,97456.59
2023-04-22T03:27:53.853Z,97460.88
2023-04-22T03:30:21.538Z,97462.03
2023-04-22T03:32:49.285Z,97463.59
2023-04-22T03:35:22.656Z,97462.19
2023-04-22T03:37:51.752Z,97455.53
2023-04-22T03:40:24.616Z,97452.44
2023-04-22T03:42:52.200Z,97450.94
2023-04-22T03:46:06.058Z,97445.19
2023-04-22T03:48:37.603Z,97438.59
2023-04-22T03:51:11.044Z,97449.84
2023-04-22T03:53:40.921Z,97450.66
2023-04-22T03:56:10.790Z,97450.28
2023-04-22T03:58:44.557Z,97442.97
2023-04-22T04:01:12.173Z,97450.72
2023-04-22T04:03:41.883Z,97450.69
2023-04-22T04:06:10.467Z,97455.72
2023-04-22T04:08:38.332Z,97455.38
2023-04-22T04:11:06.167Z,97454.56
2023-04-22T04:13:33.977Z,97454.94
2023-04-22T04:16:21.687Z,97446.00
2023-04-22T04:18:55.606Z,97448.69
2023-04-22T04:21:27.313Z,97459.91
2023-04-22T04:23:56.628Z,97455.19
2023-04-22T04:26:27.984Z,97449.34
2023-04-22T04:29:03.322Z,97450.81
2023-04-22T04:31:30.825Z,97453.09
2023-04-22T04:34:00.574Z,97453.84
2023-04-22T04:36:29.551Z,97457.28
2023-04-22T04:39:10.055Z,97454.91
2023-04-22T04:41:39.066Z,97449.81
2023-04-22T04:44:07.806Z,97451.69
2023-04-22T04:46:38.470Z,97451.25
2023-04-22T04:49:09.706Z,97451.19
2023-04-22T04:51:46.564Z,97452.28
2023-04-22T04:54:14.060Z,97446.00
2023-04-22T04:56:42.646Z,97452.94
2023-04-22T04:59:11.196Z,97448.19
2023-04-22T05:01:40.700Z,97452.06
2023-04-22T05:04:12.156Z,97442.25
2023-04-22T05:06:42.280Z,97442.22
2023-04-22T05:09:10.377Z,97440.97
2023-04-22T05:11:38.188Z,97441.69
2023-04-22T05:14:12.789Z,97444.34
2023-04-22T05:16:42.882Z,97446.63
2023-04-22T05:19:10.861Z,97438.44
2023-04-22T05:21:38.477Z,97444.56
2023-04-22T05:24:06.170Z,97446.78
2023-04-22T05:26:34.337Z,97439.78
2023-04-22T05:29:07.241Z,97448.28
2023-04-22T05:31:34.807Z,97442.84
2023-04-22T05:34:02.343Z,97444.44
2023-04-22T05:36:31.549Z,97444.38
2023-04-22T05:39:00.285Z,97442.84
2023-04-22T05:41:28.747Z,97440.94
2023-04-22T05:43:58.312Z,97435.47
2023-04-22T05:46:26.583Z,97434.63
2023-04-22T05:48:56.134Z,97434.63
2023-04-22T05:51:59.011Z,97431.09
2023-04-22T05:54:33.157Z,97426.41
2023-04-22T05:57:00.823Z,97431.06
2023-04-22T05:59:28.361Z,97423.63
2023-04-22T06:01:56.636Z,97426.38
2023-04-22T06:04:25.585Z,97422.84
2023-04-22T06:06:56.286Z,97425.56
2023-04-22T06:09:24.129Z,97434.44
2023-04-22T06:11:51.713Z,97424.03
2023-04-22T06:14:19.844Z,97426.03
2023-04-22T06:16:48.032Z,97422.59
2023-04-22T06:19:15.484Z,97421.22
2023-04-22T06:21:43.626Z,97422.88
2023-04-22T06:24:11.161Z,97429.25
2023-04-22T06:26:38.903Z,97426.28
2023-04-22T06:29:06.962Z,97424.28
2023-04-22T06:31:35.725Z,97431.47
2023-04-22T06:34:03.247Z,97412.78
2023-04-22T06:36:33.372Z,97415.38
2023-04-22T06:39:03.803Z,97416.81
2023-04-22T06:41:53.084Z,97408.84
2023-04-22T06:44:32.505Z,97404.59
2023-04-22T06:47:18.552Z,97414.66
2023-04-22T06:50:02.362Z,97420.38
2023-04-22T06:52:35.757Z,97416.31
2023-04-22T06:55:04.363Z,97422.06
2023-04-22T06:57:33.018Z,97419.97
2023-04-22T07:00:00.682Z,97421.78
2023-04-22T07:02:28.543Z,97422.47
2023-04-22T07:04:56.405Z,97433.59
2023-04-22T07:07:25.216Z,97420.66
2023-04-22T07:09:53.206Z,97430.03
2023-04-22T07:12:20.698Z,97429.50
2023-04-22T07:14:49.775Z,97426.44
2023-04-22T07:17:19.775Z,97435.16
2023-04-22T07:19:47.284Z,97429.97
2023-04-22T07:22:14.782Z,97430.06
2023-04-22T07:24:42.437Z,97428.16
2023-04-22T07:27:09.869Z,97422.75
2023-04-22T07:29:37.794Z,97423.06
2023-04-22T07:32:06.888Z,97425.38
2023-04-22T07:34:34.487Z,97425.50
2023-04-22T07:37:02.320Z,97424.78
2023-04-22T07:39:29.767Z,97421.72
2023-04-22T07:41:57.328Z,97429.63
2023-04-22T07:44:24.912Z,97427.28
2023-04-22T07:46:52.547Z,97428.19
2023-04-22T07:49:20.421Z,97426.28
2023-04-22T07:51:48.056Z,97422.81
2023-04-22T07:54:15.713Z,97425.56
2023-04-22T07:56:43.219Z,97428.25
2023-04-22T07:59:10.798Z,97433.31
2023-04-22T08:01:38.266Z,97425.53
2023-04-22T08:04:05.964Z,97429.78
2023-04-22T08:06:33.977Z,97422.84
2023-04-22T08:09:01.427Z,97429.44
2023-04-22T08:11:29.159Z,97422.44
2023-04-22T08:13:56.677Z,97411.94
2023-04-22T08:16:24.241Z,97411.88
2023-04-22T08:18:52.570Z,97412.91
2023-04-22T08:21:20.140Z,97414.72
2023-04-22T08:23:48.143Z,97410.75
2023-04-22T08:26:17.188Z,97415.38
2023-04-22T08:28:44.815Z,97409.50
2023-04-22T08:31:13.311Z,97409.41
2023-04-22T08:33:41.912Z,97421.41
2023-04-22T08:36:11.299Z,97411.72
2023-04-22T08:38:38.873Z,97410.00
2023-04-22T08:41:07.461Z,97421.97
2023-04-22T08:43:35.806Z,97410.59
2023-04-22T08:46:03.340Z,97421.56
2023-04-22T08:48:31.088Z,97412.72
2023-04-22T08:50:58.862Z,97409.22
2023-04-22T08:53:26.534Z,97411.97
2023-04-22T08:55:56.868Z,97403.78
2023-04-22T08:58:24.922Z,97398.50
2023-04-22T09:00:53.190Z,97395.78
2023-04-22T09:03:22.179Z,97399.34
2023-04-22T09:05:53.221Z,97396.22
2023-04-22T09:08:21.186Z,97391.94
2023-04-22T09:10:49.125Z,97393.16
2023-04-22T09:13:18.071Z,97396.28
2023-04-22T09:15:46.459Z,97388.91
2023-04-22T09:18:18.719Z,97393.16
2023-04-22T09:20:48.867Z,97395.09
2023-04-22T09:23:16.711Z,97397.53
2023-04-22T09:25:46.601Z,97387.41
2023-04-22T09:28:19.056Z,97392.06
2023-04-22T09:30:48.441Z,97380.53
2023-04-22T09:33:17.701Z,97374.72
2023-04-22T09:35:45.387Z,97380.13
2023-04-22T09:38:13.836Z,97370.09
2023-04-22T09:40:44.771Z,97380.94
2023-04-22T09:43:12.803Z,97373.63
2023-04-22T09:45:42.488Z,97370.50
2023-04-22T09:48:18.633Z,97367.75
2023-04-22T09:50:51.478Z,97366.22
2023-04-22T09:53:21.920Z,97354.56
2023-04-22T09:55:52.243Z,97363.88
2023-04-22T09:58:21.936Z,97358.41
2023-04-22T10:00:52.391Z,97359.09
2023-04-22T10:03:20.685Z,97353.63
2023-04-22T10:05:48.444Z,97353.56
2023-04-22T10:08:17.104Z,97352.78
2023-04-22T10:10:45.220Z,97358.06
2023-04-22T10:13:12.953Z,97352.63
2023-04-22T10:15:48.856Z,97349.06
2023-04-22T10:18:21.989Z,97345.13
2023-04-22T10:20:50.532Z,97338.13
2023-04-22T10:23:22.966Z,97338.50
2023-04-22T10:25:59.347Z,97339.19
2023-04-22T10:28:30.368Z,97334.16
2023-04-22T10:30:58.025Z,97332.19
2023-04-22T10:33:28.023Z,97338.13
2023-04-22T10:36:21.705Z,97343.50
2023-04-22T10:38:54.872Z,97331.97
2023-04-22T10:41:35.919Z,97330.84
2023-04-22T10:44:08.440Z,97323.84
2023-04-22T10:46:40.286Z,97333.50
2023-04-22T10:49:18.780Z,97334.38
2023-04-22T10:52:01.072Z,97317.69
2023-04-22T10:54:37.787Z,97321.72
2023-04-22T10:57:09.577Z,97320.53
2023-04-22T10:59:53.415Z,97327.81
2023-04-22T11:02:23.014Z,97315.91
2023-04-22T11:04:53.976Z,97305.06
2023-04-22T11:07:23.011Z,97297.66
2023-04-22T11:09:52.666Z,97288.63
2023-04-22T11:12:35.868Z,97302.63
2023-04-22T11:15:07.020Z,97298.00
2023-04-22T11:17:35.918Z,97296.66
2023-04-22T11:20:05.911Z,97288.22
2023-04-22T11:22:44.399Z,97291.31
2023-04-22T11:25:12.269Z,97282.09
2023-04-22T11:27:43.734Z,97294.09
2023-04-22T11:30:13.145Z,97282.84
2023-04-22T11:32:46.063Z,97285.56
2023-04-22T11:35:16.511Z,97285.59
2023-04-22T11:37:49.383Z,97276.69
2023-04-22T11:40:32.682Z,97277.78
2023-04-22T11:43:03.755Z,97283.22
2023-04-22T11:45:33.199Z,97280.59
2023-04-22T11:48:01.999Z,97267.03
2023-04-22T11:50:32.740Z,97273.63
2023-04-22T11:53:03.801Z,97272.41
2023-04-22T11:55:34.156Z,97278.34
2023-04-22T11:58:06.166Z,97272.56
2023-04-22T12:00:45.435Z,97273.34
2023-04-22T12:03:18.619Z,97278.13
2023-04-22T12:05:53.933Z,97275.03
2023-04-22T12:08:27.051Z,97269.66
2023-04-22T12:10:56.901Z,97265.41
2023-04-22T12:13:30.661Z,97275.88
2023-04-22T12:16:01.497Z,97260.78
2023-04-22T12:18:37.399Z,97258.06
2023-04-22T12:21:04.831Z,97261.19
2023-04-22T12:23:48.082Z,97252.69
2023-04-22T12:26:17.745Z,97254.22
2023-04-22T12:28:46.152Z,97243.03
2023-04-22T12:31:15.107Z,97246.09
2023-04-22T12:33:43.542Z,97232.97
2023-04-22T12:36:11.304Z,97236.44
2023-04-22T12:38:39.792Z,97227.97
2023-04-22T12:41:07.935Z,97230.28
2023-04-22T12:43:39.713Z,97229.09
2023-04-22T12:46:08.375Z,97227.19
2023-04-22T12:48:37.864Z,97215.56
2023-04-22T12:51:06.764Z,97217.13
2023-04-22T12:53:35.136Z,97216.34
2023-04-22T12:56:02.533Z,97212.03
2023-04-22T12:58:30.217Z,97206.69
2023-04-22T13:00:57.655Z,97198.59
2023-04-22T13:03:25.270Z,97198.19
2023-04-22T13:05:53.204Z,97199.34
2023-04-22T13:08:20.664Z,97194.31
2023-04-22T13:10:48.912Z,97199.72
2023-04-22T13:13:18.836Z,97191.22
2023-04-22T13:15:54.345Z,97186.59
2023-04-22T13:18:23.519Z,97193.06
2023-04-22T13:20:51.738Z,97174.56
2023-04-22T13:23:22.184Z,97177.25
2023-04-22T13:25:57.143Z,97171.53
2023-04-22T13:28:24.712Z,97165.28
2023-04-22T13:30:52.490Z,97172.56
2023-04-22T13:33:20.077Z,97159.03
2023-04-22T13:35:47.562Z,97157.50
2023-04-22T13:38:15.175Z,97147.88
2023-04-22T13:40:42.669Z,97152.13
2023-04-22T13:43:10.391Z,97149.78
2023-04-22T13:45:38.042Z,97144.78
2023-04-22T13:48:05.861Z,97146.72
2023-04-22T13:50:34.421Z,97148.28
2023-04-22T13:53:03.982Z,97140.19
2023-04-22T13:55:31.588Z,97142.91
2023-04-22T13:57:59.189Z,97143.28
2023-04-22T14:00:26.741Z,97144.06
2023-04-22T14:02:54.472Z,97141.75
2023-04-22T14:05:22.090Z,97134.00
2023-04-22T14:07:49.779Z,97140.22
2023-04-22T14:10:20.535Z,97134.84
2023-04-22T14:12:48.853Z,97135.22
2023-04-22T14:15:16.553Z,97136.00
2023-04-22T14:17:44.177Z,97128.28
2023-04-22T14:20:11.815Z,97130.59
2023-04-22T14:22:39.348Z,97127.88
2023-04-22T14:25:08.113Z,97127.13
2023-04-22T14:27:36.061Z,97120.16
2023-04-22T14:30:06.479Z,97123.59
2023-04-22T14:32:34.300Z,97124.38
2023-04-22T14:35:02.129Z,97127.47
2023-04-22T14:37:31.870Z,97114.72
2023-04-22T14:39:59.421Z,97119.75
2023-04-22T14:42:27.708Z,97118.59
2023-04-22T14:44:55.280Z,97110.47
2023-04-22T14:47:23.007Z,97107.38
2023-04-22T14:49:50.945Z,97111.66
2023-04-22T14:52:18.632Z,97115.16
2023-04-22T14:54:47.640Z,97118.97
2023-04-22T14:57:16.000Z,97127.84
2023-04-22T14:59:43.585Z,97120.47
2023-04-22T15:02:16.171Z,97118.88
2023-04-22T15:04:44.728Z,97123.41
2023-04-22T15:07:12.371Z,97123.38
2023-04-22T15:09:40.727Z,97119.09
2023-04-22T15:12:08.485Z,97108.97
2023-04-22T15:14:37.084Z,97119.72
2023-04-22T15:17:05.787Z,97120.09
2023-04-22T15:19:33.414Z,97118.13
2023-04-22T15:22:01.224Z,97103.50
2023-04-22T15:24:31.292Z,97109.06
2023-04-22T15:26:59.271Z,97105.19
2023-04-22T15:29:28.686Z,97114.81
2023-04-22T15:31:57.074Z,97106.75
2023-04-22T15:34:25.353Z,97110.50
2023-04-22T15:36:52.923Z,97102.44
2023-04-22T15:39:20.859Z,97109.38
2023-04-22T15:41:48.384Z,97099.31
2023-04-22T15:44:17.113Z,97107.09
2023-04-22T15:46:46.757Z,97099.00
2023-04-22T15:49:15.203Z,97092.78
2023-04-22T15:51:42.774Z,97096.66
2023-04-22T15:54:10.733Z,97069.22
2023-04-22T15:56:38.381Z,97087.00
2023-04-22T15:59:05.850Z,97087.03
2023-04-22T16:01:33.386Z,97082.34
2023-04-22T16:04:01.585Z,97083.88
2023-04-22T16:06:29.376Z,97083.50
2023-04-22T16:08:57.103Z,97088.13
2023-04-22T16:11:24.630Z,97098.84
2023-04-22T16:13:52.114Z,97097.25
2023-04-22T16:16:19.684Z,97092.94
2023-04-22T16:18:48.220Z,97093.31
2023-04-22T16:21:15.848Z,97099.34
2023-04-22T16:23:43.709Z,97082.41
2023-04-22T16:26:11.244Z,97088.94
2023-04-22T16:28:38.880Z,97076.56
2023-04-22T16:31:06.629Z,97079.09
2023-04-22T16:33:34.220Z,97083.41
2023-04-22T16:36:02.398Z,97076.88
2023-04-22T16:38:29.957Z,97077.72
2023-04-22T16:40:57.701Z,97078.41
2023-04-22T16:43:25.260Z,97083.69
2023-04-22T16:45:52.735Z,97079.88
2023-04-22T16:48:20.415Z,97084.75
2023-04-22T16:50:48.348Z,97077.22
2023-04-22T16:53:15.950Z,97078.78
2023-04-22T16:55:43.729Z,97070.38
2023-04-22T16:58:12.417Z,97070.19
2023-04-22T17:00:40.079Z,97073.16
2023-04-22T17:03:08.298Z,97069.31
2023-04-22T17:05:36.236Z,97065.88
2023-04-22T17:08:03.768Z,97064.31
2023-04-22T17:10:31.724Z,97055.09
2023-04-22T17:12:59.265Z,97059.38
2023-04-22T17:15:28.068Z,97056.69
2023-04-22T17:17:55.564Z,97043.66
2023-04-22T17:20:23.208Z,97047.03
2023-04-22T17:22:54.790Z,97050.78
2023-04-22T17:25:22.579Z,97050.06
2023-04-22T17:27:50.089Z,97034.91
2023-04-22T17:30:17.603Z,97028.31
2023-04-22T17:32:45.181Z,97026.75
2023-04-22T17:35:12.870Z,97022.56
2023-04-22T17:37:40.450Z,97019.00
2023-04-22T17:40:09.248Z,97025.63
2023-04-22T17:42:45.976Z,97011.88
2023-04-22T17:45:14.297Z,97006.88
2023-04-22T17:47:42.197Z,97003.97
2023-04-22T17:50:10.222Z,96995.09
2023-04-22T17:52:37.744Z,96990.47
2023-04-22T17:55:06.170Z,96995.09
2023-04-22T17:57:33.837Z,96988.53
2023-04-22T18:00:01.565Z,96995.91
2023-04-22T18:02:31.235Z,96986.28
2023-04-22T18:04:58.831Z,96982.09
2023-04-22T18:07:26.431Z,96991.34
2023-04-22T18:09:56.950Z,96980.19
2023-04-22T18:12:28.595Z,96989.72
2023-04-22T18:14:57.591Z,96976.97
2023-04-22T18:17:25.185Z,96959.69
2023-04-22T18:20:02.869Z,96963.47
2023-04-22T18:22:37.826Z,96952.03
2023-04-22T18:25:06.062Z,96959.75
2023-04-22T18:27:33.739Z,96955.06
2023-04-22T18:30:01.196Z,96954.31
2023-04-22T18:32:30.671Z,96950.44
2023-04-22T18:34:58.973Z,96940.81
2023-04-22T18:37:30.207Z,96942.00
2023-04-22T18:39:58.069Z,96936.22
2023-04-22T18:42:25.741Z,96921.13
2023-04-22T18:44:53.361Z,96928.78
2023-04-22T18:47:21.335Z,96924.56
2023-04-22T18:49:48.930Z,96916.16
2023-04-22T18:52:17.524Z,96911.25
2023-04-22T18:54:45.179Z,96904.06
2023-04-22T18:57:13.131Z,96899.88
2023-04-22T18:59:40.760Z,96907.25
2023-04-22T19:02:11.819Z,96905.78
2023-04-22T19:04:40.072Z,96893.09
2023-04-22T19:07:07.880Z,96888.16
2023-04-22T19:09:35.573Z,96870.44
2023-04-22T19:12:03.286Z,96877.03
2023-04-22T19:14:30.937Z,96875.13
2023-04-22T19:16:58.551Z,96873.97
2023-04-22T19:19:26.070Z,96865.91
2023-04-22T19:21:53.678Z,96867.50
2023-04-22T19:24:21.838Z,96866.81
2023-04-22T19:26:49.639Z,96854.84
2023-04-22T19:29:17.400Z,96852.47
2023-04-22T19:31:45.337Z,96846.72
2023-04-22T19:34:13.493Z,96848.63
2023-04-22T19:36:41.039Z,96851.72
2023-04-22T19:39:08.856Z,96848.28
2023-04-22T19:41:38.438Z,96854.47
2023-04-22T19:44:05.995Z,96847.91
2023-04-22T19:46:33.543Z,96851.69
2023-04-22T19:49:01.439Z,96846.34
2023-04-22T19:51:28.999Z,96829.00
2023-04-22T19:53:57.693Z,96833.28
2023-04-22T19:56:25.884Z,96835.16
2023-04-22T19:58:53.628Z,96832.00
2023-04-22T20:01:21.599Z,96835.88
2023-04-22T20:03:50.002Z,96823.56
2023-04-22T20:06:18.538Z,96820.47
2023-04-22T20:08:46.453Z,96819.72
2023-04-22T20:11:14.315Z,96816.56
2023-04-22T20:13:42.648Z,96815.38
2023-04-22T20:16:10.898Z,96808.81
2023-04-22T20:18:38.670Z,96815.44
2023-04-22T20:21:06.780Z,96806.53
2023-04-22T20:23:34.431Z,96802.97
2023-04-22T20:26:03.278Z,96804.44
2023-04-22T20:28:52.227Z,96800.81
2023-04-22T20:31:22.838Z,96794.38
2023-04-22T20:33:51.417Z,96789.81
2023-04-22T20:36:20.471Z,96785.41
2023-04-22T20:38:51.241Z,96777.06
2023-04-22T20:41:19.034Z,96773.94
2023-04-22T20:43:47.537Z,96766.72
2023-04-22T20:46:15.406Z,96771.00
2023-04-22T20:48:42.991Z,96772.84
2023-04-22T20:51:10.587Z,96764.41
2023-04-22T20:53:38.516Z,96766.63
2023-04-22T20:56:07.706Z,96746.81
2023-04-22T20:58:35.211Z,96751.84
2023-04-22T21:01:02.850Z,96759.16
2023-04-22T21:03:31.371Z,96754.50
2023-04-22T21:06:01.416Z,96762.66
2023-04-22T21:08:29.329Z,96754.59
2023-04-22T21:10:57.341Z,96764.66
2023-04-22T21:13:25.165Z,96756.94
2023-04-22T21:16:01.671Z,96747.78
2023-04-22T21:18:32.096Z,96752.31
2023-04-22T21:21:04.825Z,96746.59
2023-04-22T21:23:32.812Z,96743.13
2023-04-22T21:26:02.061Z,96731.94
2023-04-22T21:28:30.635Z,96734.31
2023-04-22T21:30:58.386Z,96742.41
2023-04-22T21:33:25.968Z,96719.72
2023-04-22T21:35:53.677Z,96732.06
2023-04-22T21:38:21.597Z,96718.97
2023-04-22T21:40:49.206Z,96727.84
2023-04-22T21:43:16.748Z,96727.84
2023-04-22T21:45:44.392Z,96712.47
2023-04-22T21:48:11.951Z,96709.78
2023-04-22T21:50:39.469Z,96707.53
2023-04-22T21:53:07.131Z,96709.44
2023-04-22T21:55:34.678Z,96703.28
2023-04-22T21:58:02.398Z,96699.81
2023-04-22T22:00:31.232Z,96699.06
2023-04-22T22:02:58.855Z,96695.97
2023-04-22T22:05:26.488Z,96691.38
2023-04-22T22:07:55.540Z,96697.13
2023-04-22T22:10:23.943Z,96692.50
2023-04-22T22:12:51.653Z,96689.81
2023-04-22T22:15:19.252Z,96698.69
2023-04-22T22:17:46.940Z,96695.19
2023-04-22T22:20:20.679Z,96686.72
2023-04-22T22:22:48.312Z,96690.19
2023-04-22T22:25:16.984Z,96679.78
2023-04-22T22:27:49.511Z,96676.69
2023-04-22T22:30:18.986Z,96679.03
2023-04-22T22:32:46.693Z,96674.78
2023-04-22T22:35:14.566Z,96674.00
2023-04-22T22:37:42.186Z,96668.63
2023-04-22T22:40:10.430Z,96664.38
2023-04-22T22:42:37.940Z,96669.03
2023-04-22T22:45:05.811Z,96665.56
2023-04-22T22:47:33.538Z,96667.84
2023-04-22T22:50:01.100Z,96667.88
2023-04-22T22:52:29.310Z,96676.31
2023-04-22T22:54:56.798Z,96668.22
2023-04-22T22:57:24.487Z,96662.47
2023-04-22T22:59:52.122Z,96667.84
2023-04-22T23:02:19.807Z,96670.94
2023-04-22T23:04:47.838Z,96668.59
2023-04-22T23:07:17.353Z,96658.59
2023-04-22T23:09:45.741Z,96661.66
2023-04-22T23:12:13.272Z,96657.44
2023-04-22T23:14:41.224Z,96652.84
2023-04-22T23:17:09.108Z,96640.91
2023-04-22T23:19:36.960Z,96644.75
2023-04-22T23:22:07.095Z,96650.88
2023-04-22T23:24:34.761Z,96636.25
2023-04-22T23:27:03.375Z,96639.34
2023-04-22T23:29:31.200Z,96633.94
2023-04-22T23:32:02.886Z,96635.88
2023-04-22T23:34:34.013Z,96634.31
2023-04-22T23:37:05.886Z,96630.06
2023-04-22T23:39:33.531Z,96631.63
2023-04-22T23:42:01.445Z,96621.97
2023-04-22T23:44:29.037Z,96627.38
2023-04-22T23:46:56.888Z,96618.13
2023-04-22T23:49:24.450Z,96625.44
2023-04-22T23:51:51.950Z,96620.41
2023-04-22T23:54:19.548Z,96617.31
2023-04-22T23:56:47.380Z,96624.66
2023-04-22T23:59:15.107Z,96626.19
